sensor_id;sensor_type;location;lat;lon;timestamp;temperature;humidity
11599;DHT22;5855;48.840;9.188;2023-04-25T00:02:09;8.80;99.90
11599;DHT22;5855;48.840;9.188;2023-04-25T00:04:36;8.70;99.90
11599;DHT22;5855;48.840;9.188;2023-04-25T00:07:03;8.70;99.90
11599;DHT22;5855;48.840;9.188;2023-04-25T00:09:30;8.60;99.90
11599;DHT22;5855;48.840;9.188;2023-04-25T00:11:57;8.70;99.90
11599;DHT22;5855;48.840;9.188;2023-04-25T00:14:24;8.60;99.90
11599;DHT22;5855;48.840;9.188;2023-04-25T00:16:51;8.60;99.90
11599;DHT22;5855;48.840;9.188;2023-04-25T00:19:20;8.60;99.90
11599;DHT22;5855;48.840;9.188;2023-04-25T00:21:47;8.50;99.90
11599;DHT22;5855;48.840;9.188;2023-04-25T00:24:14;8.50;99.90
11599;DHT22;5855;48.840;9.188;2023-04-25T00:26:41;8.50;99.90
11599;DHT22;5855;48.840;9.188;2023-04-25T00:29:08;8.50;99.90
11599;DHT22;5855;48.840;9.188;2023-04-25T00:31:34;8.50;99.90
11599;DHT22;5855;48.840;9.188;2023-04-25T00:34:01;8.60;99.90
11599;DHT22;5855;48.840;9.188;2023-04-25T00:36:30;8.60;99.90
11599;DHT22;5855;48.840;9.188;2023-04-25T00:38:56;8.60;99.90
11599;DHT22;5855;48.840;9.188;2023-04-25T00:41:25;8.50;99.90
11599;DHT22;5855;48.840;9.188;2023-04-25T00:43:54;8.40;99.90
11599;DHT22;5855;48.840;9.188;2023-04-25T00:46:21;8.40;99.90
11599;DHT22;5855;48.840;9.188;2023-04-25T00:48:47;8.40;99.90
11599;DHT22;5855;48.840;9.188;2023-04-25T00:51:19;8.40;99.90
11599;DHT22;5855;48.840;9.188;2023-04-25T00:53:49;8.40;99.90
11599;DHT22;5855;48.840;9.188;2023-04-25T00:56:16;8.40;99.90
11599;DHT22;5855;48.840;9.188;2023-04-25T00:58:43;8.30;99.90
11599;DHT22;5855;48.840;9.188;2023-04-25T01:01:11;8.30;99.90
11599;DHT22;5855;48.840;9.188;2023-04-25T01:03:39;8.40;99.90
11599;DHT22;5855;48.840;9.188;2023-04-25T01:06:07;8.40;99.90
11599;DHT22;5855;48.840;9.188;2023-04-25T01:08:34;8.40;99.90
11599;DHT22;5855;48.840;9.188;2023-04-25T01:11:03;8.40;99.90
11599;DHT22;5855;48.840;9.188;2023-04-25T01:13:30;8.50;99.90
11599;DHT22;5855;48.840;9.188;2023-04-25T01:15:57;8.50;99.90
11599;DHT22;5855;48.840;9.188;2023-04-25T01:18:24;8.50;99.90
11599;DHT22;5855;48.840;9.188;2023-04-25T01:20:52;8.60;99.90
11599;DHT22;5855;48.840;9.188;2023-04-25T01:23:21;8.60;99.90
11599;DHT22;5855;48.840;9.188;2023-04-25T01:25:49;8.60;99.90
11599;DHT22;5855;48.840;9.188;2023-04-25T01:28:16;8.60;99.90
11599;DHT22;5855;48.840;9.188;2023-04-25T01:30:43;8.60;99.90
11599;DHT22;5855;48.840;9.188;2023-04-25T01:33:11;8.60;99.90
11599;DHT22;5855;48.840;9.188;2023-04-25T01:35:40;8.60;99.90
11599;DHT22;5855;48.840;9.188;2023-04-25T01:38:07;8.60;99.90
11599;DHT22;5855;48.840;9.188;2023-04-25T01:40:38;8.50;99.90
11599;DHT22;5855;48.840;9.188;2023-04-25T01:43:05;8.60;99.90
11599;DHT22;5855;48.840;9.188;2023-04-25T01:45:34;8.50;99.90
11599;DHT22;5855;48.840;9.188;2023-04-25T01:48:02;8.50;99.90
11599;DHT22;5855;48.840;9.188;2023-04-25T01:50:29;8.50;99.90
11599;DHT22;5855;48.840;9.188;2023-04-25T01:52:56;8.50;99.90
11599;DHT22;5855;48.840;9.188;2023-04-25T01:55:23;8.60;99.90
11599;DHT22;5855;48.840;9.188;2023-04-25T01:57:51;8.50;99.90
11599;DHT22;5855;48.840;9.188;2023-04-25T02:00:18;8.50;99.90
11599;DHT22;5855;48.840;9.188;2023-04-25T02:02:46;8.40;99.90
11599;DHT22;5855;48.840;9.188;2023-04-25T02:05:13;8.50;99.90
11599;DHT22;5855;48.840;9.188;2023-04-25T02:07:40;8.50;99.90
11599;DHT22;5855;48.840;9.188;2023-04-25T02:10:08;8.40;99.90
11599;DHT22;5855;48.840;9.188;2023-04-25T02:12:35;8.50;99.90
11599;DHT22;5855;48.840;9.188;2023-04-25T02:15:05;8.50;99.90
11599;DHT22;5855;48.840;9.188;2023-04-25T02:17:32;8.50;99.90
11599;DHT22;5855;48.840;9.188;2023-04-25T02:19:59;8.50;99.90
11599;DHT22;5855;48.840;9.188;2023-04-25T02:22:26;8.50;99.90
11599;DHT22;5855;48.840;9.188;2023-04-25T02:24:55;8.50;99.90
11599;DHT22;5855;48.840;9.188;2023-04-25T02:27:22;8.50;99.90
11599;DHT22;5855;48.840;9.188;2023-04-25T02:29:49;8.50;99.90
11599;DHT22;5855;48.840;9.188;2023-04-25T02:35:21;8.40;99.90
11599;DHT22;5855;48.840;9.188;2023-04-25T02:37:48;8.40;99.90
11599;DHT22;5855;48.840;9.188;2023-04-25T02:40:15;8.40;99.90
11599;DHT22;5855;48.840;9.188;2023-04-25T02:42:42;8.40;99.90
11599;DHT22;5855;48.840;9.188;2023-04-25T02:45:11;8.30;99.90
11599;DHT22;5855;48.840;9.188;2023-04-25T02:47:38;8.20;99.90
11599;DHT22;5855;48.840;9.188;2023-04-25T02:50:05;8.10;99.90
11599;DHT22;5855;48.840;9.188;2023-04-25T02:52:34;8.20;99.90
11599;DHT22;5855;48.840;9.188;2023-04-25T02:55:01;8.10;99.90
11599;DHT22;5855;48.840;9.188;2023-04-25T02:57:29;8.10;99.90
11599;DHT22;5855;48.840;9.188;2023-04-25T02:59:55;8.10;99.90
11599;DHT22;5855;48.840;9.188;2023-04-25T03:02:22;8.10;99.90
11599;DHT22;5855;48.840;9.188;2023-04-25T03:04:49;8.10;99.90
11599;DHT22;5855;48.840;9.188;2023-04-25T03:07:16;8.10;99.90
11599;DHT22;5855;48.840;9.188;2023-04-25T03:09:44;8.10;99.90
11599;DHT22;5855;48.840;9.188;2023-04-25T03:12:11;8.00;99.90
11599;DHT22;5855;48.840;9.188;2023-04-25T03:14:37;8.00;99.90
11599;DHT22;5855;48.840;9.188;2023-04-25T03:17:04;8.10;99.90
11599;DHT22;5855;48.840;9.188;2023-04-25T03:19:31;8.00;99.90
11599;DHT22;5855;48.840;9.188;2023-04-25T03:21:58;8.00;99.90
11599;DHT22;5855;48.840;9.188;2023-04-25T03:24:25;8.00;99.90
11599;DHT22;5855;48.840;9.188;2023-04-25T03:26:54;7.90;99.90
11599;DHT22;5855;48.840;9.188;2023-04-25T03:29:20;7.90;99.90
11599;DHT22;5855;48.840;9.188;2023-04-25T03:31:49;7.90;99.90
11599;DHT22;5855;48.840;9.188;2023-04-25T03:34:16;8.00;99.90
11599;DHT22;5855;48.840;9.188;2023-04-25T03:36:43;8.00;99.90
11599;DHT22;5855;48.840;9.188;2023-04-25T03:39:10;8.00;99.90
11599;DHT22;5855;48.840;9.188;2023-04-25T03:41:37;8.00;99.90
11599;DHT22;5855;48.840;9.188;2023-04-25T03:44:05;8.10;99.90
11599;DHT22;5855;48.840;9.188;2023-04-25T03:46:32;8.10;99.90
11599;DHT22;5855;48.840;9.188;2023-04-25T03:48:59;8.00;99.90
11599;DHT22;5855;48.840;9.188;2023-04-25T03:51:26;8.10;99.90
11599;DHT22;5855;48.840;9.188;2023-04-25T03:53:53;8.10;99.90
11599;DHT22;5855;48.840;9.188;2023-04-25T03:56:19;8.10;99.90
11599;DHT22;5855;48.840;9.188;2023-04-25T03:58:46;8.20;99.90
11599;DHT22;5855;48.840;9.188;2023-04-25T04:01:15;8.20;99.90
11599;DHT22;5855;48.840;9.188;2023-04-25T04:03:42;8.10;99.90
11599;DHT22;5855;48.840;9.188;2023-04-25T04:06:09;8.10;99.90
11599;DHT22;5855;48.840;9.188;2023-04-25T04:08:36;8.10;99.90
11599;DHT22;5855;48.840;9.188;2023-04-25T04:11:03;8.00;99.90
11599;DHT22;5855;48.840;9.188;2023-04-25T04:13:30;8.00;99.90
11599;DHT22;5855;48.840;9.188;2023-04-25T04:15:57;8.10;99.90
11599;DHT22;5855;48.840;9.188;2023-04-25T04:18:25;8.00;99.90
11599;DHT22;5855;48.840;9.188;2023-04-25T04:20:52;8.00;99.90
11599;DHT22;5855;48.840;9.188;2023-04-25T04:23:19;8.00;99.90
11599;DHT22;5855;48.840;9.188;2023-04-25T04:25:48;8.00;99.90
11599;DHT22;5855;48.840;9.188;2023-04-25T04:28:15;8.10;99.90
11599;DHT22;5855;48.840;9.188;2023-04-25T04:30:43;8.10;99.90
11599;DHT22;5855;48.840;9.188;2023-04-25T04:33:12;8.10;99.90
11599;DHT22;5855;48.840;9.188;2023-04-25T04:35:42;8.10;99.90
11599;DHT22;5855;48.840;9.188;2023-04-25T04:38:09;8.10;99.90
11599;DHT22;5855;48.840;9.188;2023-04-25T04:40:37;8.10;99.90
11599;DHT22;5855;48.840;9.188;2023-04-25T04:43:04;8.10;99.90
11599;DHT22;5855;48.840;9.188;2023-04-25T04:45:31;8.00;99.90
11599;DHT22;5855;48.840;9.188;2023-04-25T04:47:59;8.00;99.90
11599;DHT22;5855;48.840;9.188;2023-04-25T04:50:26;8.00;99.90
11599;DHT22;5855;48.840;9.188;2023-04-25T04:52:54;8.00;99.90
11599;DHT22;5855;48.840;9.188;2023-04-25T04:55:21;8.10;99.90
11599;DHT22;5855;48.840;9.188;2023-04-25T04:57:48;8.10;99.90
11599;DHT22;5855;48.840;9.188;2023-04-25T05:00:16;8.10;99.90
11599;DHT22;5855;48.840;9.188;2023-04-25T05:02:43;8.20;99.90
11599;DHT22;5855;48.840;9.188;2023-04-25T05:05:10;8.20;99.90
11599;DHT22;5855;48.840;9.188;2023-04-25T05:07:37;8.30;99.90
11599;DHT22;5855;48.840;9.188;2023-04-25T05:10:06;8.30;99.90
11599;DHT22;5855;48.840;9.188;2023-04-25T05:12:33;8.40;99.90
11599;DHT22;5855;48.840;9.188;2023-04-25T05:15:00;8.40;99.90
11599;DHT22;5855;48.840;9.188;2023-04-25T05:17:27;8.40;99.90
11599;DHT22;5855;48.840;9.188;2023-04-25T05:19:54;8.40;99.90
11599;DHT22;5855;48.840;9.188;2023-04-25T05:22:21;8.50;99.90
11599;DHT22;5855;48.840;9.188;2023-04-25T05:24:50;8.70;99.90
11599;DHT22;5855;48.840;9.188;2023-04-25T05:27:19;8.70;99.90
11599;DHT22;5855;48.840;9.188;2023-04-25T05:29:46;8.70;99.90
11599;DHT22;5855;48.840;9.188;2023-04-25T05:32:13;8.70;99.90
11599;DHT22;5855;48.840;9.188;2023-04-25T05:34:40;8.70;99.90
11599;DHT22;5855;48.840;9.188;2023-04-25T05:37:08;8.70;99.90
11599;DHT22;5855;48.840;9.188;2023-04-25T05:39:37;8.70;99.90
11599;DHT22;5855;48.840;9.188;2023-04-25T05:42:04;8.70;99.90
11599;DHT22;5855;48.840;9.188;2023-04-25T05:44:32;8.50;99.90
11599;DHT22;5855;48.840;9.188;2023-04-25T05:47:02;8.50;99.90
11599;DHT22;5855;48.840;9.188;2023-04-25T05:49:30;8.40;99.90
11599;DHT22;5855;48.840;9.188;2023-04-25T05:51:57;8.40;99.90
11599;DHT22;5855;48.840;9.188;2023-04-25T05:54:24;8.30;99.90
11599;DHT22;5855;48.840;9.188;2023-04-25T05:56:51;8.30;99.90
11599;DHT22;5855;48.840;9.188;2023-04-25T05:59:18;8.30;99.90
11599;DHT22;5855;48.840;9.188;2023-04-25T06:01:46;8.10;99.90
11599;DHT22;5855;48.840;9.188;2023-04-25T06:04:13;8.20;99.90
11599;DHT22;5855;48.840;9.188;2023-04-25T06:06:40;8.30;99.90
11599;DHT22;5855;48.840;9.188;2023-04-25T06:09:07;8.30;99.90
11599;DHT22;5855;48.840;9.188;2023-04-25T06:11:33;8.30;99.90
11599;DHT22;5855;48.840;9.188;2023-04-25T06:14:01;8.30;99.90
11599;DHT22;5855;48.840;9.188;2023-04-25T06:16:28;8.30;99.90
11599;DHT22;5855;48.840;9.188;2023-04-25T06:18:56;8.40;99.90
11599;DHT22;5855;48.840;9.188;2023-04-25T06:21:23;8.40;99.90
11599;DHT22;5855;48.840;9.188;2023-04-25T06:23:50;8.50;99.90
11599;DHT22;5855;48.840;9.188;2023-04-25T06:26:16;8.60;99.90
11599;DHT22;5855;48.840;9.188;2023-04-25T06:28:43;8.70;99.90
11599;DHT22;5855;48.840;9.188;2023-04-25T06:31:11;8.90;99.90
11599;DHT22;5855;48.840;9.188;2023-04-25T06:33:38;9.10;99.90
11599;DHT22;5855;48.840;9.188;2023-04-25T06:36:06;9.10;99.90
11599;DHT22;5855;48.840;9.188;2023-04-25T06:38:33;9.30;99.90
11599;DHT22;5855;48.840;9.188;2023-04-25T06:41:01;9.40;99.90
11599;DHT22;5855;48.840;9.188;2023-04-25T06:43:28;9.40;99.90
11599;DHT22;5855;48.840;9.188;2023-04-25T06:45:58;9.40;99.90
11599;DHT22;5855;48.840;9.188;2023-04-25T06:48:25;9.50;99.90
11599;DHT22;5855;48.840;9.188;2023-04-25T06:50:52;9.50;99.90
11599;DHT22;5855;48.840;9.188;2023-04-25T06:53:20;9.40;99.90
11599;DHT22;5855;48.840;9.188;2023-04-25T06:55:47;9.40;99.90
11599;DHT22;5855;48.840;9.188;2023-04-25T06:58:14;9.60;99.90
11599;DHT22;5855;48.840;9.188;2023-04-25T07:00:40;9.50;99.90
11599;DHT22;5855;48.840;9.188;2023-04-25T07:03:07;9.60;99.90
11599;DHT22;5855;48.840;9.188;2023-04-25T07:05:35;9.70;99.90
11599;DHT22;5855;48.840;9.188;2023-04-25T07:08:01;9.70;99.90
11599;DHT22;5855;48.840;9.188;2023-04-25T07:10:30;9.60;99.90
11599;DHT22;5855;48.840;9.188;2023-04-25T07:12:57;9.50;99.90
11599;DHT22;5855;48.840;9.188;2023-04-25T07:15:24;9.50;99.90
11599;DHT22;5855;48.840;9.188;2023-04-25T07:17:51;9.60;99.90
11599;DHT22;5855;48.840;9.188;2023-04-25T07:20:18;9.60;99.90
11599;DHT22;5855;48.840;9.188;2023-04-25T07:22:45;9.60;99.90
11599;DHT22;5855;48.840;9.188;2023-04-25T07:25:12;9.60;99.90
11599;DHT22;5855;48.840;9.188;2023-04-25T07:27:40;9.50;99.90
11599;DHT22;5855;48.840;9.188;2023-04-25T07:30:08;9.50;99.90
11599;DHT22;5855;48.840;9.188;2023-04-25T07:32:35;9.50;99.90
11599;DHT22;5855;48.840;9.188;2023-04-25T07:35:02;9.50;99.90
11599;DHT22;5855;48.840;9.188;2023-04-25T07:37:29;9.40;99.90
11599;DHT22;5855;48.840;9.188;2023-04-25T07:39:55;9.30;99.90
11599;DHT22;5855;48.840;9.188;2023-04-25T07:42:22;9.20;99.90
11599;DHT22;5855;48.840;9.188;2023-04-25T07:44:51;9.10;99.90
11599;DHT22;5855;48.840;9.188;2023-04-25T07:47:17;9.20;99.90
11599;DHT22;5855;48.840;9.188;2023-04-25T07:49:45;9.20;99.90
11599;DHT22;5855;48.840;9.188;2023-04-25T07:52:12;9.10;99.90
11599;DHT22;5855;48.840;9.188;2023-04-25T07:54:39;9.10;99.90
11599;DHT22;5855;48.840;9.188;2023-04-25T07:57:07;9.10;99.90
11599;DHT22;5855;48.840;9.188;2023-04-25T07:59:34;9.00;99.90
11599;DHT22;5855;48.840;9.188;2023-04-25T08:02:02;9.10;99.90
11599;DHT22;5855;48.840;9.188;2023-04-25T08:04:29;9.10;99.90
11599;DHT22;5855;48.840;9.188;2023-04-25T08:06:55;9.10;99.90
11599;DHT22;5855;48.840;9.188;2023-04-25T08:09:22;9.30;99.90
11599;DHT22;5855;48.840;9.188;2023-04-25T08:11:50;9.40;99.90
11599;DHT22;5855;48.840;9.188;2023-04-25T08:14:17;9.40;99.90
11599;DHT22;5855;48.840;9.188;2023-04-25T08:16:44;9.30;99.90
11599;DHT22;5855;48.840;9.188;2023-04-25T08:19:12;9.20;99.90
11599;DHT22;5855;48.840;9.188;2023-04-25T08:21:39;9.20;99.90
11599;DHT22;5855;48.840;9.188;2023-04-25T08:24:06;9.20;99.90
11599;DHT22;5855;48.840;9.188;2023-04-25T08:26:33;9.10;99.90
11599;DHT22;5855;48.840;9.188;2023-04-25T08:29:02;9.00;99.90
11599;DHT22;5855;48.840;9.188;2023-04-25T08:31:30;8.90;99.90
11599;DHT22;5855;48.840;9.188;2023-04-25T08:33:56;8.80;99.90
11599;DHT22;5855;48.840;9.188;2023-04-25T08:36:25;8.90;99.90
11599;DHT22;5855;48.840;9.188;2023-04-25T08:38:53;8.90;99.90
11599;DHT22;5855;48.840;9.188;2023-04-25T08:41:21;8.90;99.90
11599;DHT22;5855;48.840;9.188;2023-04-25T08:43:48;8.80;99.90
11599;DHT22;5855;48.840;9.188;2023-04-25T08:46:17;8.70;99.90
11599;DHT22;5855;48.840;9.188;2023-04-25T08:48:45;8.60;99.90
11599;DHT22;5855;48.840;9.188;2023-04-25T08:51:17;8.60;99.90
11599;DHT22;5855;48.840;9.188;2023-04-25T08:53:51;8.50;99.90
11599;DHT22;5855;48.840;9.188;2023-04-25T08:56:18;8.70;99.90
11599;DHT22;5855;48.840;9.188;2023-04-25T08:58:48;8.70;99.90
11599;DHT22;5855;48.840;9.188;2023-04-25T09:01:15;8.70;99.90
11599;DHT22;5855;48.840;9.188;2023-04-25T09:03:42;8.60;99.90
11599;DHT22;5855;48.840;9.188;2023-04-25T09:06:11;8.70;99.90
11599;DHT22;5855;48.840;9.188;2023-04-25T09:08:38;8.60;99.90
11599;DHT22;5855;48.840;9.188;2023-04-25T09:11:07;8.60;99.90
11599;DHT22;5855;48.840;9.188;2023-04-25T09:13:34;8.60;99.90
11599;DHT22;5855;48.840;9.188;2023-04-25T09:16:01;8.60;99.90
11599;DHT22;5855;48.840;9.188;2023-04-25T09:18:29;8.60;99.90
11599;DHT22;5855;48.840;9.188;2023-04-25T09:20:58;8.60;99.90
11599;DHT22;5855;48.840;9.188;2023-04-25T09:23:25;8.50;99.90
11599;DHT22;5855;48.840;9.188;2023-04-25T09:25:53;8.40;99.90
11599;DHT22;5855;48.840;9.188;2023-04-25T09:28:24;8.40;99.90
11599;DHT22;5855;48.840;9.188;2023-04-25T09:30:55;8.30;99.90
11599;DHT22;5855;48.840;9.188;2023-04-25T09:33:28;8.30;99.90
11599;DHT22;5855;48.840;9.188;2023-04-25T09:36:02;8.30;99.90
11599;DHT22;5855;48.840;9.188;2023-04-25T09:38:30;8.40;99.90
11599;DHT22;5855;48.840;9.188;2023-04-25T09:40:58;8.40;99.90
11599;DHT22;5855;48.840;9.188;2023-04-25T09:43:27;8.30;99.90
11599;DHT22;5855;48.840;9.188;2023-04-25T09:45:55;8.20;99.90
11599;DHT22;5855;48.840;9.188;2023-04-25T09:48:26;8.20;99.90
11599;DHT22;5855;48.840;9.188;2023-04-25T09:51:07;8.00;99.90
11599;DHT22;5855;48.840;9.188;2023-04-25T09:53:34;7.90;99.90
11599;DHT22;5855;48.840;9.188;2023-04-25T09:56:04;7.90;99.90
11599;DHT22;5855;48.840;9.188;2023-04-25T09:58:34;7.90;99.90
11599;DHT22;5855;48.840;9.188;2023-04-25T10:01:03;7.80;99.90
11599;DHT22;5855;48.840;9.188;2023-04-25T10:03:31;7.70;99.90
11599;DHT22;5855;48.840;9.188;2023-04-25T10:06:00;7.70;99.90
11599;DHT22;5855;48.840;9.188;2023-04-25T10:08:31;7.80;99.90
11599;DHT22;5855;48.840;9.188;2023-04-25T10:11:00;7.80;99.90
11599;DHT22;5855;48.840;9.188;2023-04-25T10:13:28;7.60;99.90
11599;DHT22;5855;48.840;9.188;2023-04-25T10:15:57;7.40;99.90
11599;DHT22;5855;48.840;9.188;2023-04-25T10:18:25;7.30;99.90
11599;DHT22;5855;48.840;9.188;2023-04-25T10:20:54;7.20;99.90
11599;DHT22;5855;48.840;9.188;2023-04-25T10:23:21;7.10;99.90
11599;DHT22;5855;48.840;9.188;2023-04-25T10:25:50;7.10;99.90
11599;DHT22;5855;48.840;9.188;2023-04-25T10:28:18;7.10;99.90
11599;DHT22;5855;48.840;9.188;2023-04-25T10:31:00;7.20;99.90
11599;DHT22;5855;48.840;9.188;2023-04-25T10:33:35;7.30;99.90
11599;DHT22;5855;48.840;9.188;2023-04-25T10:36:09;7.30;99.90
11599;DHT22;5855;48.840;9.188;2023-04-25T10:38:37;7.30;99.90
11599;DHT22;5855;48.840;9.188;2023-04-25T10:41:05;7.30;99.90
11599;DHT22;5855;48.840;9.188;2023-04-25T10:43:38;7.30;99.90
11599;DHT22;5855;48.840;9.188;2023-04-25T10:46:22;7.30;99.90
11599;DHT22;5855;48.840;9.188;2023-04-25T10:48:50;7.30;99.90
11599;DHT22;5855;48.840;9.188;2023-04-25T10:51:22;7.40;99.90
11599;DHT22;5855;48.840;9.188;2023-04-25T10:53:59;7.30;99.90
11599;DHT22;5855;48.840;9.188;2023-04-25T10:56:27;7.30;99.90
11599;DHT22;5855;48.840;9.188;2023-04-25T10:59:09;7.30;99.90
11599;DHT22;5855;48.840;9.188;2023-04-25T11:01:39;7.40;99.90
11599;DHT22;5855;48.840;9.188;2023-04-25T11:04:09;7.30;99.90
11599;DHT22;5855;48.840;9.188;2023-04-25T11:06:55;7.30;99.90
11599;DHT22;5855;48.840;9.188;2023-04-25T11:09:24;7.50;99.90
11599;DHT22;5855;48.840;9.188;2023-04-25T11:11:54;7.50;99.90
11599;DHT22;5855;48.840;9.188;2023-04-25T11:14:21;7.50;99.90
11599;DHT22;5855;48.840;9.188;2023-04-25T11:16:54;7.50;99.90
11599;DHT22;5855;48.840;9.188;2023-04-25T11:19:21;7.50;99.90
11599;DHT22;5855;48.840;9.188;2023-04-25T11:21:48;7.70;99.90
11599;DHT22;5855;48.840;9.188;2023-04-25T11:24:16;7.70;99.90
11599;DHT22;5855;48.840;9.188;2023-04-25T11:26:43;7.70;99.90
11599;DHT22;5855;48.840;9.188;2023-04-25T11:29:13;7.90;99.90
11599;DHT22;5855;48.840;9.188;2023-04-25T11:31:43;7.90;99.90
11599;DHT22;5855;48.840;9.188;2023-04-25T11:34:16;8.10;99.90
11599;DHT22;5855;48.840;9.188;2023-04-25T11:36:45;8.10;99.90
11599;DHT22;5855;48.840;9.188;2023-04-25T11:39:12;8.20;99.90
11599;DHT22;5855;48.840;9.188;2023-04-25T11:41:41;8.20;99.90
11599;DHT22;5855;48.840;9.188;2023-04-25T11:44:08;8.20;99.90
11599;DHT22;5855;48.840;9.188;2023-04-25T11:46:36;8.10;99.90
11599;DHT22;5855;48.840;9.188;2023-04-25T11:49:03;8.10;99.90
11599;DHT22;5855;48.840;9.188;2023-04-25T11:51:38;8.10;99.90
11599;DHT22;5855;48.840;9.188;2023-04-25T11:54:05;8.20;99.90
11599;DHT22;5855;48.840;9.188;2023-04-25T11:56:32;8.30;99.90
11599;DHT22;5855;48.840;9.188;2023-04-25T11:59:00;8.40;99.90
11599;DHT22;5855;48.840;9.188;2023-04-25T12:01:28;8.50;99.90
11599;DHT22;5855;48.840;9.188;2023-04-25T12:03:55;8.70;99.90
11599;DHT22;5855;48.840;9.188;2023-04-25T12:06:26;8.70;99.90
11599;DHT22;5855;48.840;9.188;2023-04-25T12:09:02;8.60;99.90
11599;DHT22;5855;48.840;9.188;2023-04-25T12:11:30;8.60;99.90
11599;DHT22;5855;48.840;9.188;2023-04-25T12:14:02;8.40;99.90
11599;DHT22;5855;48.840;9.188;2023-04-25T12:16:40;8.30;99.90
11599;DHT22;5855;48.840;9.188;2023-04-25T12:19:07;8.20;99.90
11599;DHT22;5855;48.840;9.188;2023-04-25T12:21:33;8.20;99.90
11599;DHT22;5855;48.840;9.188;2023-04-25T12:24:11;8.20;99.90
11599;DHT22;5855;48.840;9.188;2023-04-25T12:26:50;8.20;99.90
11599;DHT22;5855;48.840;9.188;2023-04-25T12:29:19;8.20;99.90
11599;DHT22;5855;48.840;9.188;2023-04-25T12:31:47;8.20;99.90
11599;DHT22;5855;48.840;9.188;2023-04-25T12:34:14;8.10;99.90
11599;DHT22;5855;48.840;9.188;2023-04-25T12:36:41;8.30;99.90
11599;DHT22;5855;48.840;9.188;2023-04-25T12:39:09;8.60;99.90
11599;DHT22;5855;48.840;9.188;2023-04-25T12:41:41;8.90;99.90
11599;DHT22;5855;48.840;9.188;2023-04-25T12:44:08;9.20;99.90
11599;DHT22;5855;48.840;9.188;2023-04-25T12:46:35;9.90;99.90
11599;DHT22;5855;48.840;9.188;2023-04-25T12:49:03;11.00;99.90
11599;DHT22;5855;48.840;9.188;2023-04-25T12:51:30;11.40;99.90
11599;DHT22;5855;48.840;9.188;2023-04-25T12:53:58;11.50;99.90
11599;DHT22;5855;48.840;9.188;2023-04-25T12:56:26;11.30;99.90
11599;DHT22;5855;48.840;9.188;2023-04-25T12:58:57;11.30;99.90
11599;DHT22;5855;48.840;9.188;2023-04-25T13:01:25;11.30;99.90
11599;DHT22;5855;48.840;9.188;2023-04-25T13:03:52;11.50;99.90
11599;DHT22;5855;48.840;9.188;2023-04-25T13:06:20;11.50;99.90
11599;DHT22;5855;48.840;9.188;2023-04-25T13:08:47;11.30;99.90
11599;DHT22;5855;48.840;9.188;2023-04-25T13:11:14;11.50;99.90
11599;DHT22;5855;48.840;9.188;2023-04-25T13:13:43;11.60;99.90
11599;DHT22;5855;48.840;9.188;2023-04-25T13:16:09;11.60;99.90
11599;DHT22;5855;48.840;9.188;2023-04-25T13:18:39;11.50;99.90
11599;DHT22;5855;48.840;9.188;2023-04-25T13:21:06;11.50;99.90
11599;DHT22;5855;48.840;9.188;2023-04-25T13:23:33;11.90;99.90
11599;DHT22;5855;48.840;9.188;2023-04-25T13:26:02;12.20;99.90
11599;DHT22;5855;48.840;9.188;2023-04-25T13:28:31;11.70;99.90
11599;DHT22;5855;48.840;9.188;2023-04-25T13:30:59;11.70;99.90
11599;DHT22;5855;48.840;9.188;2023-04-25T13:33:26;11.80;99.90
11599;DHT22;5855;48.840;9.188;2023-04-25T13:35:53;11.90;99.90
11599;DHT22;5855;48.840;9.188;2023-04-25T13:38:22;11.70;99.90
11599;DHT22;5855;48.840;9.188;2023-04-25T13:40:49;11.50;99.90
11599;DHT22;5855;48.840;9.188;2023-04-25T13:43:21;11.40;99.90
11599;DHT22;5855;48.840;9.188;2023-04-25T13:45:48;11.50;99.90
11599;DHT22;5855;48.840;9.188;2023-04-25T13:48:18;11.30;99.90
11599;DHT22;5855;48.840;9.188;2023-04-25T13:50:46;11.20;99.90
11599;DHT22;5855;48.840;9.188;2023-04-25T13:53:13;11.20;99.90
11599;DHT22;5855;48.840;9.188;2023-04-25T13:55:40;11.70;99.90
11599;DHT22;5855;48.840;9.188;2023-04-25T13:58:06;12.40;99.90
11599;DHT22;5855;48.840;9.188;2023-04-25T14:00:36;13.40;99.90
11599;DHT22;5855;48.840;9.188;2023-04-25T14:03:05;14.20;99.90
11599;DHT22;5855;48.840;9.188;2023-04-25T14:05:35;14.90;99.90
11599;DHT22;5855;48.840;9.188;2023-04-25T14:08:05;14.90;99.90
11599;DHT22;5855;48.840;9.188;2023-04-25T14:10:32;14.80;99.90
11599;DHT22;5855;48.840;9.188;2023-04-25T14:13:00;14.60;99.90
11599;DHT22;5855;48.840;9.188;2023-04-25T14:15:29;14.30;99.90
11599;DHT22;5855;48.840;9.188;2023-04-25T14:17:56;14.60;99.90
11599;DHT22;5855;48.840;9.188;2023-04-25T14:20:22;15.80;99.90
11599;DHT22;5855;48.840;9.188;2023-04-25T14:22:50;17.40;99.90
11599;DHT22;5855;48.840;9.188;2023-04-25T14:25:19;18.50;99.90
11599;DHT22;5855;48.840;9.188;2023-04-25T14:27:46;19.30;99.90
11599;DHT22;5855;48.840;9.188;2023-04-25T14:30:15;19.70;99.90
11599;DHT22;5855;48.840;9.188;2023-04-25T14:32:42;19.40;99.50
11599;DHT22;5855;48.840;9.188;2023-04-25T14:35:10;18.50;98.60
11599;DHT22;5855;48.840;9.188;2023-04-25T14:37:37;17.40;99.90
11599;DHT22;5855;48.840;9.188;2023-04-25T14:40:07;16.40;99.90
11599;DHT22;5855;48.840;9.188;2023-04-25T14:42:37;16.70;99.90
11599;DHT22;5855;48.840;9.188;2023-04-25T14:45:05;16.80;99.90
11599;DHT22;5855;48.840;9.188;2023-04-25T14:47:32;16.20;99.90
11599;DHT22;5855;48.840;9.188;2023-04-25T14:49:59;16.90;99.90
11599;DHT22;5855;48.840;9.188;2023-04-25T14:52:27;17.10;99.90
11599;DHT22;5855;48.840;9.188;2023-04-25T14:54:54;16.20;99.90
11599;DHT22;5855;48.840;9.188;2023-04-25T14:57:22;17.50;99.90
11599;DHT22;5855;48.840;9.188;2023-04-25T14:59:49;19.20;99.90
11599;DHT22;5855;48.840;9.188;2023-04-25T15:02:16;20.50;98.90
11599;DHT22;5855;48.840;9.188;2023-04-25T15:04:43;21.20;97.20
11599;DHT22;5855;48.840;9.188;2023-04-25T15:07:13;20.70;95.30
11599;DHT22;5855;48.840;9.188;2023-04-25T15:09:40;20.00;95.80
11599;DHT22;5855;48.840;9.188;2023-04-25T15:12:07;19.30;97.90
11599;DHT22;5855;48.840;9.188;2023-04-25T15:14:35;18.80;97.60
11599;DHT22;5855;48.840;9.188;2023-04-25T15:17:02;18.10;99.20
11599;DHT22;5855;48.840;9.188;2023-04-25T15:19:29;17.40;99.00
11599;DHT22;5855;48.840;9.188;2023-04-25T15:21:56;17.10;99.90
11599;DHT22;5855;48.840;9.188;2023-04-25T15:24:26;16.90;99.90
11599;DHT22;5855;48.840;9.188;2023-04-25T15:26:53;16.60;99.90
11599;DHT22;5855;48.840;9.188;2023-04-25T15:29:20;16.50;99.90
11599;DHT22;5855;48.840;9.188;2023-04-25T15:31:48;16.30;99.90
11599;DHT22;5855;48.840;9.188;2023-04-25T15:34:15;15.90;99.90
11599;DHT22;5855;48.840;9.188;2023-04-25T15:36:42;15.60;99.90
11599;DHT22;5855;48.840;9.188;2023-04-25T15:39:09;15.50;99.90
11599;DHT22;5855;48.840;9.188;2023-04-25T15:41:36;15.70;99.90
11599;DHT22;5855;48.840;9.188;2023-04-25T15:44:03;16.20;99.90
11599;DHT22;5855;48.840;9.188;2023-04-25T15:46:30;16.10;99.90
11599;DHT22;5855;48.840;9.188;2023-04-25T15:48:58;16.00;99.90
11599;DHT22;5855;48.840;9.188;2023-04-25T15:51:25;15.70;99.90
11599;DHT22;5855;48.840;9.188;2023-04-25T15:53:52;15.20;99.90
11599;DHT22;5855;48.840;9.188;2023-04-25T15:56:19;15.30;99.90
11599;DHT22;5855;48.840;9.188;2023-04-25T15:58:46;15.60;99.90
11599;DHT22;5855;48.840;9.188;2023-04-25T16:01:13;16.30;99.90
11599;DHT22;5855;48.840;9.188;2023-04-25T16:03:40;17.00;99.90
11599;DHT22;5855;48.840;9.188;2023-04-25T16:06:08;17.50;99.90